Time;durP1;ratioP1;P1;durP2;ratioP2;P2;SDS_P1;SDS_P2;PMS_P1;PMS_P2;Temp;Humidity;BMP_temperature;BMP_pressure;BME280_temperature;BME280_humidity;BME280_pressure;Samples;Min_cycle;Max_cycle;Signal;HPM_P1;HPM_P2
2023/08/26 00:00:30;;;;;;;79.85;31.40;;;;;;;19.33;100.00;100594.78;5108800;28;20036;-68
2023/08/26 00:02:56;;;;;;;105.65;33.22;;;;;;;19.30;100.00;100589.03;5108153;28;20052;-67
2023/08/26 00:05:21;;;;;;;96.90;33.08;;;;;;;19.33;100.00;100592.03;5109078;28;20019;-67
2023/08/26 00:07:47;;;;;;;80.43;31.20;;;;;;;19.32;100.00;100593.16;5108645;28;20039;-67
2023/08/26 00:10:12;;;;;;;69.65;30.17;;;;;;;19.33;100.00;100594.78;5107694;28;20024;-69
2023/08/26 00:12:38;;;;;;;80.30;33.05;;;;;;;19.24;100.00;100575.38;5107525;28;20425;-67
2023/08/26 00:15:04;;;;;;;84.18;32.97;;;;;;;19.34;100.00;100587.44;5108275;28;20039;-68
2023/08/26 00:17:29;;;;;;;72.55;31.27;;;;;;;19.31;100.00;100579.78;5107627;28;20035;-68
2023/08/26 00:19:55;;;;;;;71.38;31.55;;;;;;;19.36;100.00;100588.78;5107239;28;20042;-67
2023/08/26 00:22:20;;;;;;;81.03;33.83;;;;;;;19.30;100.00;100589.03;5108602;28;20042;-70
2023/08/26 00:24:47;;;;;;;60.17;30.25;;;;;;;19.32;100.00;100589.59;5106726;28;20031;-67
2023/08/26 00:27:12;;;;;;;88.60;33.47;;;;;;;19.19;100.00;100594.41;5104289;28;20032;-66
2023/08/26 00:29:38;;;;;;;75.30;30.27;;;;;;;18.95;100.00;100582.22;5096307;28;20035;-66
2023/08/26 00:32:04;;;;;;;71.95;31.00;;;;;;;19.07;100.00;100592.94;5104258;28;20035;-67
2023/08/26 00:34:29;;;;;;;58.60;28.25;;;;;;;19.13;100.00;100600.09;5106973;28;20028;-67
2023/08/26 00:36:55;;;;;;;62.92;27.80;;;;;;;19.20;100.00;100612.44;5102666;28;20024;-69
2023/08/26 00:39:20;;;;;;;63.70;29.45;;;;;;;19.23;100.00;100590.06;5084161;28;20035;-68
2023/08/26 00:41:46;;;;;;;62.38;28.60;;;;;;;19.24;100.00;100610.84;5108953;28;20054;-67
2023/08/26 00:44:12;;;;;;;55.90;27.67;;;;;;;19.31;100.00;100609.78;5108975;28;20065;-67
2023/08/26 00:46:37;;;;;;;52.50;26.65;;;;;;;19.35;100.00;100600.00;5108813;28;20032;-67
2023/08/26 00:49:03;;;;;;;54.05;26.33;;;;;;;19.34;100.00;100571.06;5106558;28;20024;-66
2023/08/26 00:51:29;;;;;;;51.55;24.92;;;;;;;19.28;100.00;100564.75;5107672;28;20051;-79
2023/08/26 00:53:56;;;;;;;44.80;23.95;;;;;;;19.28;100.00;100583.84;5107038;28;20333;-67
2023/08/26 00:56:22;;;;;;;46.03;24.73;;;;;;;19.26;100.00;100583.28;5102067;28;20032;-68
2023/08/26 00:58:48;;;;;;;47.42;24.88;;;;;;;19.44;100.00;100603.88;5102930;28;20027;-68
2023/08/26 01:01:14;;;;;;;43.50;23.23;;;;;;;19.51;100.00;100620.03;5102953;28;20028;-67
2023/08/26 01:03:39;;;;;;;34.30;21.08;;;;;;;19.55;100.00;100612.94;5100575;28;20034;-67
2023/08/26 01:06:05;;;;;;;41.55;23.52;;;;;;;19.51;100.00;100590.00;5095928;28;20023;-67
2023/08/26 01:08:31;;;;;;;36.95;22.55;;;;;;;19.38;100.00;100577.63;5100867;28;20032;-67
2023/08/26 01:11:29;;;;;;;39.80;23.50;;;;;;;19.38;100.00;100567.53;5102175;28;20123;-67
2023/08/26 01:14:05;;;;;;;33.78;21.70;;;;;;;19.34;100.00;100555.53;5070268;28;20040;-67
2023/08/26 01:16:34;;;;;;;34.25;21.80;;;;;;;19.29;100.00;100552.75;5100111;28;20051;-67
2023/08/26 01:19:00;;;;;;;38.20;22.58;;;;;;;19.22;100.00;100550.25;5100787;28;20020;-68
2023/08/26 01:21:35;;;;;;;43.20;24.42;;;;;;;19.18;100.00;100546.41;5100710;28;20035;-67
2023/08/26 01:24:01;;;;;;;45.88;23.80;;;;;;;19.13;100.00;100542.81;5100462;28;20111;-67
2023/08/26 01:26:26;;;;;;;37.03;23.88;;;;;;;19.01;100.00;100535.66;5100021;28;20055;-66
2023/08/26 01:28:51;;;;;;;39.60;24.35;;;;;;;19.15;100.00;100551.56;5099542;28;20031;-67
2023/08/26 01:31:20;;;;;;;38.22;23.25;;;;;;;19.24;100.00;100550.00;5082549;28;20028;-67
2023/08/26 01:34:06;;;;;;;35.22;23.65;;;;;;;19.27;100.00;100546.75;5099868;28;20039;-67
2023/08/26 01:36:34;;;;;;;33.30;22.40;;;;;;;19.23;100.00;100556.53;5099884;28;20426;-68
2023/08/26 01:39:01;;;;;;;35.53;22.58;;;;;;;19.30;100.00;100568.03;5100070;28;20031;-67
2023/08/26 01:41:29;;;;;;;37.75;23.60;;;;;;;19.36;100.00;100593.44;5102229;28;20024;-68
2023/08/26 01:43:56;;;;;;;34.47;21.85;;;;;;;19.39;100.00;100595.66;5104490;28;20028;-68
2023/08/26 01:46:37;;;;;;;34.50;21.67;;;;;;;19.41;100.00;100580.66;5106032;28;20092;-66
2023/08/26 01:49:03;;;;;;;30.60;21.27;;;;;;;19.45;100.00;100575.50;5085780;28;20032;-66
2023/08/26 01:51:29;;;;;;;29.75;21.45;;;;;;;19.45;100.00;100562.66;5101953;28;20120;-67
2023/08/26 01:53:55;;;;;;;36.90;23.70;;;;;;;19.12;100.00;100503.81;5099748;28;20020;-70
2023/08/26 01:56:20;;;;;;;37.42;21.88;;;;;;;19.36;100.00;100538.88;5101846;28;20027;-66
2023/08/26 01:58:46;;;;;;;33.60;21.80;;;;;;;18.99;100.00;100502.38;5100607;28;20092;-70
2023/08/26 02:01:11;;;;;;;36.30;23.05;;;;;;;19.09;100.00;100547.97;5082953;28;20039;-68
2023/08/26 02:03:36;;;;;;;43.53;25.15;;;;;;;19.25;100.00;100551.63;5100412;28;20081;-69
2023/08/26 02:06:02;;;;;;;38.45;23.38;;;;;;;19.05;100.00;100541.41;5099064;28;20028;-68
2023/08/26 02:08:27;;;;;;;33.42;21.83;;;;;;;18.98;100.00;100529.91;5099519;28;20047;-67
2023/08/26 02:10:57;;;;;;;36.72;22.17;;;;;;;19.16;100.00;100554.03;5081848;28;20085;-67
2023/08/26 02:13:25;;;;;;;35.53;22.45;;;;;;;19.24;100.00;100556.28;5082302;28;20028;-67
2023/08/26 02:15:51;;;;;;;30.98;20.83;;;;;;;19.08;100.00;100535.44;5097772;28;20031;-68
2023/08/26 02:18:17;;;;;;;33.90;20.33;;;;;;;19.10;100.00;100544.16;5100047;28;20024;-68
2023/08/26 02:20:44;;;;;;;35.22;22.13;;;;;;;19.13;100.00;100543.63;5099610;28;20020;-67
2023/08/26 02:23:12;;;;;;;38.22;21.95;;;;;;;19.08;100.00;100546.34;5099515;28;20038;-67
2023/08/26 02:25:41;;;;;;;32.92;20.35;;;;;;;19.19;100.00;100539.84;5099842;28;20036;-67
2023/08/26 02:28:07;;;;;;;31.13;20.58;;;;;;;19.17;100.00;100543.94;5097874;28;20061;-68
2023/08/26 02:30:33;;;;;;;36.33;22.10;;;;;;;19.07;100.00;100536.50;5098260;28;20193;-67
2023/08/26 02:32:59;;;;;;;37.63;22.05;;;;;;;19.00;100.00;100528.53;5097366;28;20134;-67
2023/08/26 02:35:25;;;;;;;37.70;22.10;;;;;;;18.91;100.00;100524.69;5097467;28;20555;-67
2023/08/26 02:37:50;;;;;;;41.65;23.90;;;;;;;18.82;100.00;100501.69;5095999;28;20024;-66
2023/08/26 02:40:16;;;;;;;39.17;22.27;;;;;;;18.86;100.00;100521.09;5096431;28;20581;-67
2023/08/26 02:42:41;;;;;;;46.15;23.80;;;;;;;18.94;100.00;100512.41;5080518;28;20144;-67
2023/08/26 02:45:07;;;;;;;43.42;23.83;;;;;;;18.96;100.00;100510.25;5095405;28;20028;-66
2023/08/26 02:47:32;;;;;;;36.67;21.35;;;;;;;19.00;100.00;100522.28;5097199;28;20208;-67
2023/08/26 02:49:58;;;;;;;34.67;20.10;;;;;;;19.05;100.00;100525.03;5098414;28;20028;-67
2023/08/26 02:52:23;;;;;;;33.28;19.25;;;;;;;18.77;100.00;100510.69;5098259;28;20525;-67
2023/08/26 02:54:49;;;;;;;26.65;16.52;;;;;;;18.76;100.00;100498.09;5099205;28;20064;-68
2023/08/26 02:57:14;;;;;;;24.70;15.23;;;;;;;18.65;100.00;100487.38;5098240;28;20138;-67
2023/08/26 02:59:40;;;;;;;20.08;13.77;;;;;;;18.71;100.00;100500.78;5099363;28;20032;-67
2023/08/26 03:02:07;;;;;;;26.85;13.95;;;;;;;18.51;100.00;100489.72;5097948;28;20036;-67
2023/08/26 03:04:33;;;;;;;21.40;13.75;;;;;;;18.58;100.00;100516.75;5098103;28;20028;-67
2023/08/26 03:06:59;;;;;;;20.75;13.50;;;;;;;18.64;100.00;100519.25;5099021;28;20020;-67
2023/08/26 03:09:27;;;;;;;22.35;14.18;;;;;;;18.64;100.00;100511.09;5101355;28;20519;-68
2023/08/26 03:11:54;;;;;;;21.88;13.82;;;;;;;18.52;100.00;100511.25;5099979;28;20035;-67
2023/08/26 03:14:19;;;;;;;23.75;13.95;;;;;;;18.55;100.00;100516.19;5099741;28;20016;-67
2023/08/26 03:16:45;;;;;;;20.08;13.20;;;;;;;18.57;100.00;100517.81;5102478;28;20024;-69
2023/08/26 03:19:10;;;;;;;19.75;13.73;;;;;;;18.54;100.00;100521.88;5101590;28;20024;-67
2023/08/26 03:21:35;;;;;;;21.60;13.68;;;;;;;18.64;100.00;100505.63;5103020;28;20028;-67
2023/08/26 03:24:01;;;;;;;21.15;13.10;;;;;;;18.50;100.00;100513.38;5101602;28;20088;-67
2023/08/26 03:26:26;;;;;;;20.23;12.70;;;;;;;18.50;100.00;100515.28;5084177;28;20028;-67
2023/08/26 03:28:51;;;;;;;19.00;12.90;;;;;;;18.55;100.00;100488.94;5101110;28;20035;-67
2023/08/26 03:31:17;;;;;;;21.52;13.45;;;;;;;18.59;100.00;100500.13;5084217;28;20040;-67
2023/08/26 03:33:42;;;;;;;26.48;14.45;;;;;;;18.72;100.00;100507.06;5102044;28;20028;-67
2023/08/26 03:36:08;;;;;;;21.48;14.35;;;;;;;18.66;100.00;100511.63;5102313;28;20107;-68
2023/08/26 03:38:34;;;;;;;21.70;13.60;;;;;;;18.57;100.00;100504.19;5100167;28;20020;-67
2023/08/26 03:41:06;;;;;;;26.33;13.68;;;;;;;18.58;100.00;100517.56;5102007;28;20445;-71
2023/08/26 03:43:32;;;;;;;20.50;12.40;;;;;;;18.64;100.00;100505.63;5101537;28;20091;-68
2023/08/26 03:45:58;;;;;;;23.50;13.90;;;;;;;18.72;100.00;100510.63;5101495;28;20096;-67
2023/08/26 03:48:23;;;;;;;22.65;13.25;;;;;;;18.67;100.00;100507.00;5083661;28;20081;-67
2023/08/26 03:50:50;;;;;;;21.55;12.93;;;;;;;18.61;100.00;100511.59;5100209;28;20035;-68
2023/08/26 03:53:16;;;;;;;21.13;13.27;;;;;;;18.70;100.00;100517.38;5096853;28;20036;-67
2023/08/26 03:55:42;;;;;;;26.70;13.95;;;;;;;18.48;100.00;100458.34;5099356;28;20050;-67
2023/08/26 03:58:07;;;;;;;24.27;14.27;;;;;;;18.61;100.00;100505.31;5100033;28;20032;-67
2023/08/26 04:00:33;;;;;;;30.83;15.93;;;;;;;18.41;100.00;100504.06;5101621;28;20106;-66
2023/08/26 04:02:58;;;;;;;30.33;16.60;;;;;;;18.51;100.00;100500.63;5082771;28;20020;-67
2023/08/26 04:05:24;;;;;;;29.80;15.88;;;;;;;18.37;100.00;100496.66;5099868;28;20394;-68
2023/08/26 04:07:49;;;;;;;26.67;14.85;;;;;;;18.25;100.00;100518.63;5098724;28;20517;-67
2023/08/26 04:10:15;;;;;;;26.77;15.27;;;;;;;18.44;100.00;100497.25;5098593;28;20032;-66
2023/08/26 04:12:40;;;;;;;30.33;16.35;;;;;;;18.66;100.00;100514.34;5101202;28;20028;-67
2023/08/26 04:15:06;;;;;;;24.15;14.05;;;;;;;18.53;100.00;100514.78;5101537;28;20008;-68
2023/08/26 04:17:32;;;;;;;21.77;13.77;;;;;;;18.40;100.00;100512.47;5102115;28;20129;-67
2023/08/26 04:19:59;;;;;;;22.73;14.00;;;;;;;18.50;100.00;100507.94;5099002;28;20036;-67
2023/08/26 04:22:24;;;;;;;20.88;12.15;;;;;;;18.65;100.00;100504.53;5101540;28;20093;-68
2023/08/26 04:24:50;;;;;;;17.60;12.27;;;;;;;18.74;100.00;100510.34;5099485;28;20065;-68
2023/08/26 04:27:16;;;;;;;17.90;11.38;;;;;;;18.66;100.00;100514.34;5099722;28;20700;-66
2023/08/26 04:29:41;;;;;;;13.05;9.73;;;;;;;18.51;100.00;100519.69;5101461;28;20168;-69
2023/08/26 04:32:07;;;;;;;18.00;10.20;;;;;;;18.63;100.00;100511.31;5101633;28;20028;-68
2023/08/26 04:34:32;;;;;;;12.73;9.48;;;;;;;18.60;100.00;100509.94;5099523;28;20414;-67
2023/08/26 04:36:58;;;;;;;9.90;7.88;;;;;;;18.54;100.00;100516.41;5082197;28;20066;-68
2023/08/26 04:39:23;;;;;;;11.65;8.13;;;;;;;18.62;100.00;100512.41;5097606;28;20538;-67
2023/08/26 04:41:49;;;;;;;11.77;8.50;;;;;;;18.56;100.00;100519.72;5097887;28;20028;-67
2023/08/26 04:44:17;;;;;;;13.25;9.02;;;;;;;18.48;100.00;100512.84;5082895;28;20043;-67
2023/08/26 04:46:43;;;;;;;12.18;8.85;;;;;;;18.47;100.00;100513.91;5099514;28;20471;-69
2023/08/26 04:49:08;;;;;;;11.27;9.07;;;;;;;18.75;100.00;100515.56;5099944;28;20039;-67
2023/08/26 04:51:34;;;;;;;11.88;9.13;;;;;;;18.81;100.00;100512.84;5099468;28;20044;-67
2023/08/26 04:53:59;;;;;;;14.20;10.18;;;;;;;18.73;100.00;100516.88;5105671;28;20454;-68
2023/08/26 04:56:27;;;;;;;15.07;10.30;;;;;;;18.74;100.00;100508.47;5102813;28;20024;-66
2023/08/26 04:58:52;;;;;;;13.35;9.85;;;;;;;18.68;100.00;100497.75;5108737;28;20088;-67
2023/08/26 05:01:17;;;;;;;16.00;10.95;;;;;;;18.69;100.00;100507.56;5108100;28;20142;-67
2023/08/26 05:03:43;;;;;;;14.40;10.65;;;;;;;18.88;100.00;100500.66;5108001;28;20115;-68
2023/08/26 05:06:08;;;;;;;16.50;11.50;;;;;;;18.82;100.00;100500.88;5108279;28;20060;-67
2023/08/26 05:08:34;;;;;;;15.73;12.02;;;;;;;18.87;100.00;100501.72;5109074;28;20028;-68
2023/08/26 05:10:59;;;;;;;17.77;11.93;;;;;;;18.96;100.00;100502.06;5108112;28;20322;-70
2023/08/26 05:13:24;;;;;;;21.15;12.35;;;;;;;19.03;100.00;100502.66;5109369;28;20028;-67
2023/08/26 05:15:50;;;;;;;20.30;12.30;;;;;;;19.01;100.00;100492.03;5091331;28;20064;-68
2023/08/26 05:18:16;;;;;;;18.48;13.18;;;;;;;19.12;100.00;100503.81;5109392;28;20040;-67
2023/08/26 05:20:46;;;;;;;17.92;12.90;;;;;;;19.26;100.00;100498.72;5109106;28;20024;-70
2023/08/26 05:23:12;;;;;;;18.25;12.55;;;;;;;19.23;100.00;100497.31;5108429;28;20032;-67
2023/08/26 05:25:37;;;;;;;17.45;12.07;;;;;;;19.17;100.00;100500.28;5090928;28;20027;-67
2023/08/26 05:28:04;;;;;;;15.02;11.95;;;;;;;18.91;100.00;100502.88;5094167;28;20344;-67
2023/08/26 05:30:30;;;;;;;18.30;12.52;;;;;;;19.09;100.00;100495.34;5109138;28;20098;-68
2023/08/26 05:32:55;;;;;;;14.02;11.02;;;;;;;19.09;100.00;100482.53;5108083;28;20083;-68
2023/08/26 05:35:21;;;;;;;16.92;11.88;;;;;;;18.98;100.00;100489.00;5105176;28;20031;-68
2023/08/26 05:37:47;;;;;;;19.45;12.43;;;;;;;19.06;100.00;100485.78;5106376;28;20283;-67
2023/08/26 05:40:13;;;;;;;15.00;10.70;;;;;;;18.73;100.00;100489.63;5108939;28;20032;-67
2023/08/26 05:42:38;;;;;;;14.60;11.27;;;;;;;18.94;100.00;100491.44;5108436;28;20532;-68
2023/08/26 05:45:06;;;;;;;12.68;10.20;;;;;;;18.92;100.00;100492.78;5108109;28;20028;-68
2023/08/26 05:47:31;;;;;;;15.07;10.43;;;;;;;18.82;100.00;100477.16;5088372;28;20402;-67
2023/08/26 05:49:59;;;;;;;13.68;10.25;;;;;;;19.08;100.00;100491.78;5103537;28;20024;-67
2023/08/26 05:52:25;;;;;;;11.55;9.93;;;;;;;19.30;100.00;100494.34;5104666;28;20057;-67
2023/08/26 05:54:51;;;;;;;9.48;8.55;;;;;;;19.26;100.00;100493.25;5102078;28;20479;-69
2023/08/26 05:57:17;;;;;;;11.02;7.93;;;;;;;19.10;100.00;100492.34;5084045;28;20044;-68
2023/08/26 05:59:43;;;;;;;8.75;7.47;;;;;;;19.22;100.00;100500.34;5111421;28;20062;-70
2023/08/26 06:02:09;;;;;;;9.10;7.90;;;;;;;19.23;100.00;100493.78;5110549;28;20054;-70
2023/08/26 06:04:34;;;;;;;9.20;7.20;;;;;;;19.19;100.00;100485.31;5108539;28;20036;-71
2023/08/26 06:07:00;;;;;;;8.77;6.70;;;;;;;19.14;100.00;100488.03;5104036;28;20028;-70
2023/08/26 06:09:26;;;;;;;7.50;6.70;;;;;;;18.95;100.00;100424.91;5102384;28;20051;-72
2023/08/26 06:11:51;;;;;;;8.00;7.00;;;;;;;19.55;100.00;100490.94;5099347;28;20091;-71
2023/08/26 06:14:17;;;;;;;7.97;6.95;;;;;;;19.68;100.00;100490.47;5095593;28;20020;-69
2023/08/26 06:16:42;;;;;;;8.55;7.05;;;;;;;19.58;100.00;100487.69;5101231;28;20035;-72
2023/08/26 06:19:08;;;;;;;7.57;6.78;;;;;;;19.61;100.00;100478.97;5104925;28;20028;-70
2023/08/26 06:21:34;;;;;;;10.57;7.10;;;;;;;19.34;100.00;100478.31;5103616;28;20028;-72
2023/08/26 06:23:59;;;;;;;12.50;7.88;;;;;;;19.48;100.00;100465.81;5086559;28;20187;-70
2023/08/26 06:26:25;;;;;;;9.45;7.95;;;;;;;19.55;100.00;100488.22;5085978;28;20035;-72
2023/08/26 06:28:51;;;;;;;10.57;7.50;;;;;;;19.44;100.00;100478.34;5102168;28;20039;-72
2023/08/26 06:31:16;;;;;;;10.63;7.75;;;;;;;19.64;100.00;100473.00;5103087;28;20059;-69
2023/08/26 06:33:43;;;;;;;9.10;7.55;;;;;;;19.42;100.00;100470.41;5104936;28;20054;-72
2023/08/26 06:36:09;;;;;;;8.80;7.88;;;;;;;19.67;100.00;100488.84;5103544;28;20032;-73
2023/08/26 06:38:34;;;;;;;10.43;8.05;;;;;;;19.68;100.00;100493.22;5104307;28;20088;-69
2023/08/26 06:41:00;;;;;;;9.57;8.00;;;;;;;19.50;100.00;100471.81;5105323;28;20032;-70
2023/08/26 06:43:27;;;;;;;9.55;8.32;;;;;;;19.63;100.00;100489.59;5104405;28;20035;-72
2023/08/26 06:45:53;;;;;;;8.70;7.80;;;;;;;19.32;100.00;100458.66;5100260;28;20016;-71
2023/08/26 06:48:18;;;;;;;8.88;7.90;;;;;;;19.52;100.00;100477.00;5101687;28;20088;-71
2023/08/26 06:50:50;;;;;;;11.48;8.52;;;;;;;19.42;100.00;100461.41;5101765;28;20028;-71
2023/08/26 06:53:23;;;;;;;13.13;8.55;;;;;;;19.45;100.00;100480.00;5096584;28;20048;-70
2023/08/26 06:55:52;;;;;;;11.75;8.35;;;;;;;19.30;100.00;100475.25;5094467;28;20030;-71
2023/08/26 06:58:18;;;;;;;12.05;8.60;;;;;;;19.42;100.00;100470.41;5095749;28;20062;-69
2023/08/26 07:00:44;;;;;;;16.20;9.13;;;;;;;19.27;100.00;100474.97;5094095;28;20063;-70
2023/08/26 07:03:10;;;;;;;16.05;9.32;;;;;;;19.30;100.00;100474.44;5093088;28;20032;-69
2023/08/26 07:05:42;;;;;;;12.68;8.52;;;;;;;19.32;100.00;100473.09;5096463;28;20028;-70
2023/08/26 07:08:08;;;;;;;12.75;9.27;;;;;;;19.41;100.00;100478.88;5093113;28;20130;-71
2023/08/26 07:10:34;;;;;;;11.60;9.57;;;;;;;19.48;100.00;100474.81;5076706;28;20028;-70
2023/08/26 07:12:59;;;;;;;13.13;8.82;;;;;;;19.38;100.00;100471.22;5095104;28;20047;-69
2023/08/26 07:15:25;;;;;;;15.20;10.75;;;;;;;19.51;100.00;100472.66;5096225;28;20024;-68
2023/08/26 07:17:51;;;;;;;21.88;9.70;;;;;;;19.53;100.00;100470.47;5097104;28;20063;-68
2023/08/26 07:20:17;;;;;;;12.30;9.10;;;;;;;19.49;100.00;100476.44;5097624;28;20107;-67
2023/08/26 07:22:42;;;;;;;8.43;7.53;;;;;;;19.27;100.00;100472.25;5094820;28;20542;-68
2023/08/26 07:25:08;;;;;;;11.02;8.02;;;;;;;19.25;100.00;100458.88;5095007;28;20047;-68
2023/08/26 07:27:34;;;;;;;12.30;8.15;;;;;;;19.30;100.00;100466.25;5095864;28;20047;-68
2023/08/26 07:30:00;;;;;;;9.48;7.40;;;;;;;19.18;100.00;100461.84;5094070;28;20020;-67
2023/08/26 07:32:26;;;;;;;11.02;8.85;;;;;;;19.15;100.00;100473.28;5094243;28;20520;-67
2023/08/26 07:34:52;;;;;;;10.32;8.10;;;;;;;19.37;100.00;100470.41;5092603;28;20032;-67
2023/08/26 07:37:18;;;;;;;11.15;8.30;;;;;;;19.46;100.00;100479.72;5094835;28;20051;-68
2023/08/26 07:39:43;;;;;;;14.48;8.07;;;;;;;19.42;100.00;100473.16;5094787;28;20054;-68
2023/08/26 07:42:08;;;;;;;9.32;7.95;;;;;;;19.36;100.00;100470.66;5094640;28;20031;-67
2023/08/26 07:44:34;;;;;;;15.52;7.75;;;;;;;19.31;100.00;100473.38;5094336;28;20039;-68
2023/08/26 07:46:59;;;;;;;8.00;5.75;;;;;;;19.17;100.00;100468.41;5095402;28;20024;-67
2023/08/26 07:49:25;;;;;;;6.32;5.72;;;;;;;19.06;100.00;100469.41;5094708;28;20028;-67
2023/08/26 07:51:50;;;;;;;7.57;5.10;;;;;;;19.03;100.00;100478.13;5077404;28;20062;-67
2023/08/26 07:54:15;;;;;;;6.53;5.32;;;;;;;19.20;100.00;100478.78;5095449;28;20059;-66
2023/08/26 07:56:41;;;;;;;5.35;4.85;;;;;;;19.22;100.00;100483.97;5099923;28;20111;-66
2023/08/26 07:59:06;;;;;;;6.32;4.68;;;;;;;19.19;100.00;100468.13;5101963;28;20043;-66
2023/08/26 08:01:32;;;;;;;5.30;4.80;;;;;;;19.29;100.00;100468.19;5099457;28;20039;-66
2023/08/26 08:03:57;;;;;;;6.57;4.70;;;;;;;19.28;100.00;100474.72;5098778;28;20036;-67
2023/08/26 08:06:23;;;;;;;5.47;4.25;;;;;;;18.96;100.00;100428.44;5099699;28;20119;-67
2023/08/26 08:08:48;;;;;;;7.32;3.17;;;;;;;19.16;100.00;100480.38;5099956;28;20024;-66
2023/08/26 08:11:14;;;;;;;4.25;3.67;;;;;;;19.29;100.00;100475.53;5100234;28;20087;-67
2023/08/26 08:13:39;;;;;;;3.70;3.40;;;;;;;19.42;100.00;100486.78;5099324;28;20465;-67
2023/08/26 08:16:05;;;;;;;3.67;3.00;;;;;;;19.49;100.00;100486.56;5099817;28;20052;-67
2023/08/26 08:18:30;;;;;;;5.18;3.17;;;;;;;19.13;100.00;100485.53;5098787;28;20039;-67
2023/08/26 08:20:56;;;;;;;3.92;3.50;;;;;;;19.08;100.00;100475.44;5099971;28;20054;-67
2023/08/26 08:23:21;;;;;;;5.53;3.90;;;;;;;19.08;100.00;100471.88;5099126;28;20020;-67
2023/08/26 08:25:46;;;;;;;6.53;3.80;;;;;;;19.16;100.00;100477.66;5105241;28;20118;-67
2023/08/26 08:28:12;;;;;;;4.43;4.03;;;;;;;19.17;100.00;100479.31;5101165;28;20031;-66
2023/08/26 08:30:38;;;;;;;6.55;4.68;;;;;;;19.34;100.00;100478.31;5105987;28;20517;-67
2023/08/26 08:33:04;;;;;;;4.93;4.40;;;;;;;19.35;100.00;100471.75;5115590;28;20110;-67
2023/08/26 08:35:29;;;;;;;4.60;4.05;;;;;;;19.33;100.00;100479.38;5102161;28;20020;-67
2023/08/26 08:37:55;;;;;;;4.90;4.50;;;;;;;19.45;100.00;100469.06;5111712;28;20384;-69
2023/08/26 08:40:20;;;;;;;4.78;4.32;;;;;;;19.32;100.00;100455.91;5108571;28;20023;-67
2023/08/26 08:42:47;;;;;;;7.15;4.78;;;;;;;19.49;100.00;100472.91;5105030;28;20140;-67
2023/08/26 08:45:13;;;;;;;5.53;5.03;;;;;;;19.39;100.00;100475.59;5114225;28;20047;-67
2023/08/26 08:47:38;;;;;;;6.65;5.20;;;;;;;19.47;100.00;100473.19;5104608;28;20052;-67
2023/08/26 08:50:05;;;;;;;6.88;4.90;;;;;;;19.52;100.00;100475.09;5111374;27;20032;-67
2023/08/26 08:52:32;;;;;;;6.50;5.32;;;;;;;19.61;100.00;100481.69;5109133;28;20048;-67
2023/08/26 08:54:58;;;;;;;5.03;4.50;;;;;;;19.63;100.00;100486.88;5102912;28;20028;-67
2023/08/26 08:57:31;;;;;;;6.35;4.80;;;;;;;19.69;100.00;100483.94;5114022;28;20087;-67
2023/08/26 08:59:57;;;;;;;5.72;4.50;;;;;;;19.56;100.00;100480.84;5104392;28;20024;-67
2023/08/26 09:02:23;;;;;;;7.10;4.70;;;;;;;19.72;100.00;100504.41;5107077;28;20032;-67
2023/08/26 09:04:49;;;;;;;6.20;4.25;;;;;;;19.74;100.00;100493.25;5094345;28;20039;-66
2023/08/26 09:07:17;;;;;;;4.75;4.10;;;;;;;19.85;100.00;100506.66;5099498;28;20039;-67
2023/08/26 09:09:42;;;;;;;5.72;4.30;;;;;;;19.92;100.00;100512.69;5112380;28;20040;-68
2023/08/26 09:12:08;;;;;;;6.10;4.00;;;;;;;19.99;100.00;100514.34;5088600;28;20441;-67
2023/08/26 09:14:33;;;;;;;5.65;4.50;;;;;;;20.03;100.00;100515.44;5103730;28;20345;-67
2023/08/26 09:17:14;;;;;;;4.72;4.10;;;;;;;20.06;100.00;100529.38;5111906;28;20478;-67
2023/08/26 09:19:51;;;;;;;4.75;4.10;;;;;;;20.06;100.00;100518.44;5086287;28;20046;-67
2023/08/26 09:22:18;;;;;;;6.97;4.45;;;;;;;20.12;100.00;100525.56;5109690;28;20034;-67
2023/08/26 09:24:44;;;;;;;4.47;4.07;;;;;;;20.17;100.00;100527.50;5093745;28;20583;-67
2023/08/26 09:27:09;;;;;;;4.90;4.28;;;;;;;20.18;100.00;100527.22;5102418;28;20044;-67
2023/08/26 09:29:37;;;;;;;9.52;4.10;;;;;;;20.19;100.00;100537.06;5114712;28;20028;-67
2023/08/26 09:32:03;;;;;;;3.92;3.58;;;;;;;20.07;100.00;100516.56;5088458;28;20114;-68
2023/08/26 09:34:30;;;;;;;6.72;3.78;;;;;;;20.17;100.00;100538.44;5105822;28;20110;-68
2023/08/26 09:36:56;;;;;;;4.00;3.30;;;;;;;20.16;100.00;100536.78;5097088;28;20383;-67
2023/08/26 09:39:22;;;;;;;4.63;3.85;;;;;;;20.05;100.00;100537.84;5097318;28;20081;-67
2023/08/26 09:41:48;;;;;;;6.82;3.83;;;;;;;19.98;100.00;100532.63;5097557;28;20474;-67
2023/08/26 09:44:17;;;;;;;4.75;4.03;;;;;;;20.04;100.00;100528.03;5096984;28;20432;-67
2023/08/26 09:46:43;;;;;;;4.10;3.70;;;;;;;19.94;100.00;100528.81;5097166;28;20031;-67
2023/08/26 09:49:17;;;;;;;5.80;3.67;;;;;;;19.91;100.00;100532.06;5096287;28;20035;-67
2023/08/26 09:51:48;;;;;;;8.82;4.45;;;;;;;19.92;100.00;100530.97;5098280;28;20051;-67
2023/08/26 09:54:23;;;;;;;8.10;4.50;;;;;;;19.92;100.00;100530.97;5097153;28;20117;-67
2023/08/26 09:56:49;;;;;;;6.32;4.22;;;;;;;19.87;100.00;100511.84;5097699;28;20450;-67
2023/08/26 09:59:18;;;;;;;6.03;4.30;;;;;;;20.03;100.00;100529.09;5095947;28;20031;-67
2023/08/26 10:01:45;;;;;;;5.32;4.15;;;;;;;20.05;100.00;100533.19;5096085;28;20020;-67
2023/08/26 10:04:13;;;;;;;4.78;3.40;;;;;;;20.04;100.00;100523.38;5094929;28;20066;-67
2023/08/26 10:06:42;;;;;;;8.18;4.00;;;;;;;19.99;100.00;100519.78;5095768;28;20032;-67
2023/08/26 10:09:33;;;;;;;5.00;2.80;;;;;;;19.93;100.00;100519.81;5096952;28;20486;-66
2023/08/26 10:12:04;;;;;;;6.03;3.30;;;;;;;19.94;100.00;100520.63;5056755;28;20399;-68
2023/08/26 10:14:32;;;;;;;5.30;3.22;;;;;;;19.90;100.00;100516.75;5097614;28;20016;-68
2023/08/26 10:17:02;;;;;;;6.18;2.97;;;;;;;19.92;100.00;100514.59;5103634;28;20152;-66
2023/08/26 10:19:30;;;;;;;5.47;3.22;;;;;;;20.07;100.00;100530.22;5097416;28;20039;-67
2023/08/26 10:21:56;;;;;;;7.68;3.60;;;;;;;20.03;100.00;100529.91;5095882;28;20027;-67
2023/08/26 10:24:21;;;;;;;8.25;3.22;;;;;;;20.13;100.00;100540.88;5095402;28;20043;-66
2023/08/26 10:26:47;;;;;;;8.88;3.63;;;;;;;20.12;100.00;100535.69;5097519;28;20028;-66
2023/08/26 10:29:15;;;;;;;9.32;3.28;;;;;;;20.09;100.00;100530.75;5096226;28;20091;-68
2023/08/26 10:31:42;;;;;;;8.35;3.60;;;;;;;20.16;100.00;100542.25;5096769;28;20050;-69
2023/08/26 10:34:07;;;;;;;6.90;3.60;;;;;;;20.14;100.00;100547.97;5096346;28;20535;-67
2023/08/26 10:36:34;;;;;;;10.88;4.13;;;;;;;20.02;100.00;100535.66;5095228;28;20032;-67
2023/08/26 10:39:00;;;;;;;5.40;3.30;;;;;;;20.17;100.00;100547.44;5096078;28;20024;-68
2023/08/26 10:41:26;;;;;;;7.68;3.58;;;;;;;20.17;100.00;100555.66;5078774;28;20051;-67
2023/08/26 10:44:07;;;;;;;8.18;3.65;;;;;;;20.13;100.00;100553.69;5095965;28;20043;-67
2023/08/26 10:46:33;;;;;;;7.45;3.40;;;;;;;20.13;100.00;100545.50;5094636;28;20032;-67
2023/08/26 10:48:59;;;;;;;6.18;3.40;;;;;;;20.05;100.00;100546.84;5095133;28;20042;-67
2023/08/26 10:51:25;;;;;;;5.40;2.97;;;;;;;20.07;100.00;100552.06;5092993;28;20506;-67
2023/08/26 10:53:51;;;;;;;6.38;3.47;;;;;;;19.97;100.00;100541.94;5094555;28;20028;-66
2023/08/26 10:56:18;;;;;;;5.60;3.08;;;;;;;20.03;100.00;100550.94;5091677;28;20032;-66
2023/08/26 10:58:48;;;;;;;7.50;3.15;;;;;;;20.00;100.00;100540.56;5073176;28;20573;-66
2023/08/26 11:01:15;;;;;;;5.97;3.30;;;;;;;19.99;100.00;100549.84;5079913;28;20074;-68
2023/08/26 11:03:43;;;;;;;8.80;3.20;;;;;;;19.88;100.00;100524.41;5080500;28;20033;-67
2023/08/26 11:06:12;;;;;;;10.38;3.10;;;;;;;19.93;100.00;100538.91;5077064;28;20019;-67